sensor_id;sensor_type;location;lat;lon;timestamp;temperature;humidity
24146;DHT22;12308;50.948;4.706;2022-12-18T00:01:41;-3.20;99.90
24146;DHT22;12308;50.948;4.706;2022-12-18T00:04:11;-3.30;99.90
24146;DHT22;12308;50.948;4.706;2022-12-18T00:06:40;-3.30;99.90
24146;DHT22;12308;50.948;4.706;2022-12-18T00:09:06;-3.40;99.90
24146;DHT22;12308;50.948;4.706;2022-12-18T00:11:31;-3.30;99.90
24146;DHT22;12308;50.948;4.706;2022-12-18T00:13:58;-3.30;99.90
24146;DHT22;12308;50.948;4.706;2022-12-18T00:16:26;-3.40;99.90
24146;DHT22;12308;50.948;4.706;2022-12-18T00:18:54;-3.40;99.90
24146;DHT22;12308;50.948;4.706;2022-12-18T00:21:20;-3.30;99.90
24146;DHT22;12308;50.948;4.706;2022-12-18T00:23:47;-3.30;99.90
24146;DHT22;12308;50.948;4.706;2022-12-18T00:26:16;-3.40;99.90
24146;DHT22;12308;50.948;4.706;2022-12-18T00:28:43;-3.30;99.90
24146;DHT22;12308;50.948;4.706;2022-12-18T00:31:11;-3.40;99.90
24146;DHT22;12308;50.948;4.706;2022-12-18T00:33:37;-3.30;99.90
24146;DHT22;12308;50.948;4.706;2022-12-18T00:36:14;-3.20;99.90
24146;DHT22;12308;50.948;4.706;2022-12-18T00:38:41;-3.30;99.90
24146;DHT22;12308;50.948;4.706;2022-12-18T00:41:10;-3.30;99.90
24146;DHT22;12308;50.948;4.706;2022-12-18T00:43:37;-3.20;99.90
24146;DHT22;12308;50.948;4.706;2022-12-18T00:46:03;-3.30;99.90
24146;DHT22;12308;50.948;4.706;2022-12-18T00:48:29;-3.30;99.90
24146;DHT22;12308;50.948;4.706;2022-12-18T00:50:55;-3.20;99.90
24146;DHT22;12308;50.948;4.706;2022-12-18T00:53:21;-3.20;99.90
24146;DHT22;12308;50.948;4.706;2022-12-18T00:55:46;-3.20;99.90
24146;DHT22;12308;50.948;4.706;2022-12-18T00:58:14;-3.30;99.90
24146;DHT22;12308;50.948;4.706;2022-12-18T01:00:40;-3.40;99.90
24146;DHT22;12308;50.948;4.706;2022-12-18T01:03:06;-3.30;99.90
24146;DHT22;12308;50.948;4.706;2022-12-18T01:05:32;-3.40;99.90
24146;DHT22;12308;50.948;4.706;2022-12-18T01:07:58;-3.40;99.90
24146;DHT22;12308;50.948;4.706;2022-12-18T01:10:24;-3.50;99.90
24146;DHT22;12308;50.948;4.706;2022-12-18T01:12:50;-3.60;99.90
24146;DHT22;12308;50.948;4.706;2022-12-18T01:15:17;-3.60;99.90
24146;DHT22;12308;50.948;4.706;2022-12-18T01:17:43;-3.50;99.90
24146;DHT22;12308;50.948;4.706;2022-12-18T01:20:10;-3.50;99.90
24146;DHT22;12308;50.948;4.706;2022-12-18T01:22:36;-3.50;99.90
24146;DHT22;12308;50.948;4.706;2022-12-18T01:25:02;-3.50;99.90
24146;DHT22;12308;50.948;4.706;2022-12-18T01:27:28;-3.50;99.90
24146;DHT22;12308;50.948;4.706;2022-12-18T01:29:54;-3.50;99.90
24146;DHT22;12308;50.948;4.706;2022-12-18T01:32:20;-3.60;99.90
24146;DHT22;12308;50.948;4.706;2022-12-18T01:34:45;-3.70;99.90
24146;DHT22;12308;50.948;4.706;2022-12-18T01:37:11;-3.60;99.90
24146;DHT22;12308;50.948;4.706;2022-12-18T01:39:37;-3.60;99.90
24146;DHT22;12308;50.948;4.706;2022-12-18T01:42:03;-3.50;99.90
24146;DHT22;12308;50.948;4.706;2022-12-18T01:50:09;-3.40;99.90
24146;DHT22;12308;50.948;4.706;2022-12-18T01:52:36;-3.30;99.90
24146;DHT22;12308;50.948;4.706;2022-12-18T01:55:05;-3.20;99.90
24146;DHT22;12308;50.948;4.706;2022-12-18T01:57:32;-3.30;99.90
24146;DHT22;12308;50.948;4.706;2022-12-18T02:00:02;-3.20;99.90
24146;DHT22;12308;50.948;4.706;2022-12-18T02:02:28;-3.30;99.90
24146;DHT22;12308;50.948;4.706;2022-12-18T02:04:54;-3.30;99.90
24146;DHT22;12308;50.948;4.706;2022-12-18T02:10:10;-3.20;99.90
24146;DHT22;12308;50.948;4.706;2022-12-18T02:12:47;-3.00;99.90
24146;DHT22;12308;50.948;4.706;2022-12-18T02:15:22;-3.10;99.90
24146;DHT22;12308;50.948;4.706;2022-12-18T02:17:58;-3.20;99.90
24146;DHT22;12308;50.948;4.706;2022-12-18T02:20:43;-3.30;99.90
24146;DHT22;12308;50.948;4.706;2022-12-18T02:26:24;-3.60;99.90
24146;DHT22;12308;50.948;4.706;2022-12-18T02:29:13;-3.70;99.90
24146;DHT22;12308;50.948;4.706;2022-12-18T02:31:44;-3.80;99.90
24146;DHT22;12308;50.948;4.706;2022-12-18T02:34:11;-4.00;99.90
24146;DHT22;12308;50.948;4.706;2022-12-18T02:36:39;-4.10;99.90
24146;DHT22;12308;50.948;4.706;2022-12-18T02:39:07;-4.20;99.90
24146;DHT22;12308;50.948;4.706;2022-12-18T02:41:34;-4.10;99.90
24146;DHT22;12308;50.948;4.706;2022-12-18T02:44:07;-4.20;99.90
24146;DHT22;12308;50.948;4.706;2022-12-18T02:46:46;-4.10;99.90
24146;DHT22;12308;50.948;4.706;2022-12-18T02:52:21;-4.10;99.90
24146;DHT22;12308;50.948;4.706;2022-12-18T02:58:26;-4.10;99.90
24146;DHT22;12308;50.948;4.706;2022-12-18T03:01:09;-4.40;99.90
24146;DHT22;12308;50.948;4.706;2022-12-18T03:06:32;-4.50;99.90
24146;DHT22;12308;50.948;4.706;2022-12-18T03:09:08;-4.30;99.90
24146;DHT22;12308;50.948;4.706;2022-12-18T03:11:38;-4.30;99.90
24146;DHT22;12308;50.948;4.706;2022-12-18T03:14:25;-4.40;99.90
24146;DHT22;12308;50.948;4.706;2022-12-18T03:16:54;-4.60;99.90
24146;DHT22;12308;50.948;4.706;2022-12-18T03:19:27;-4.80;99.90
24146;DHT22;12308;50.948;4.706;2022-12-18T03:21:57;-4.90;99.90
24146;DHT22;12308;50.948;4.706;2022-12-18T03:24:25;-4.90;99.90
24146;DHT22;12308;50.948;4.706;2022-12-18T03:26:54;-4.90;99.90
24146;DHT22;12308;50.948;4.706;2022-12-18T03:29:36;-4.90;99.90
24146;DHT22;12308;50.948;4.706;2022-12-18T03:32:12;-5.10;99.90
24146;DHT22;12308;50.948;4.706;2022-12-18T03:34:40;-4.80;99.90
24146;DHT22;12308;50.948;4.706;2022-12-18T03:37:07;-4.60;99.90
24146;DHT22;12308;50.948;4.706;2022-12-18T03:39:34;-4.60;99.90
24146;DHT22;12308;50.948;4.706;2022-12-18T03:42:01;-4.70;99.90
24146;DHT22;12308;50.948;4.706;2022-12-18T03:44:41;-5.00;99.90
24146;DHT22;12308;50.948;4.706;2022-12-18T03:50:18;-5.00;99.90
24146;DHT22;12308;50.948;4.706;2022-12-18T03:53:21;-5.10;99.90
24146;DHT22;12308;50.948;4.706;2022-12-18T03:55:44;-5.20;99.90
24146;DHT22;12308;50.948;4.706;2022-12-18T03:58:13;-5.20;99.90
24146;DHT22;12308;50.948;4.706;2022-12-18T04:00:41;-5.20;99.90
24146;DHT22;12308;50.948;4.706;2022-12-18T04:03:08;-5.10;99.90
24146;DHT22;12308;50.948;4.706;2022-12-18T04:05:35;-5.10;99.90
24146;DHT22;12308;50.948;4.706;2022-12-18T04:08:02;-4.90;99.90
24146;DHT22;12308;50.948;4.706;2022-12-18T04:10:29;-4.80;99.90
24146;DHT22;12308;50.948;4.706;2022-12-18T04:12:58;-4.70;99.90
24146;DHT22;12308;50.948;4.706;2022-12-18T04:15:24;-4.70;99.90
24146;DHT22;12308;50.948;4.706;2022-12-18T04:17:50;-4.80;99.90
24146;DHT22;12308;50.948;4.706;2022-12-18T04:20:16;-4.90;99.90
24146;DHT22;12308;50.948;4.706;2022-12-18T04:22:42;-5.10;99.90
24146;DHT22;12308;50.948;4.706;2022-12-18T04:25:07;-5.20;99.90
24146;DHT22;12308;50.948;4.706;2022-12-18T04:27:34;-5.10;99.90
24146;DHT22;12308;50.948;4.706;2022-12-18T04:29:59;-5.20;99.90
24146;DHT22;12308;50.948;4.706;2022-12-18T04:32:25;-5.30;99.90
24146;DHT22;12308;50.948;4.706;2022-12-18T04:34:51;-5.30;99.90
24146;DHT22;12308;50.948;4.706;2022-12-18T04:37:16;-5.40;99.90
24146;DHT22;12308;50.948;4.706;2022-12-18T04:39:42;-5.50;99.90
24146;DHT22;12308;50.948;4.706;2022-12-18T04:42:08;-5.60;99.90
24146;DHT22;12308;50.948;4.706;2022-12-18T04:44:33;-5.60;99.90
24146;DHT22;12308;50.948;4.706;2022-12-18T04:46:59;-5.60;99.90
24146;DHT22;12308;50.948;4.706;2022-12-18T04:49:25;-5.70;99.90
24146;DHT22;12308;50.948;4.706;2022-12-18T04:51:51;-5.70;99.90
24146;DHT22;12308;50.948;4.706;2022-12-18T04:54:17;-5.60;99.90
24146;DHT22;12308;50.948;4.706;2022-12-18T04:56:42;-5.50;99.90
24146;DHT22;12308;50.948;4.706;2022-12-18T04:59:08;-5.50;99.90
24146;DHT22;12308;50.948;4.706;2022-12-18T05:01:33;-5.40;99.90
24146;DHT22;12308;50.948;4.706;2022-12-18T05:03:59;-5.40;99.90
24146;DHT22;12308;50.948;4.706;2022-12-18T05:06:25;-5.20;99.90
24146;DHT22;12308;50.948;4.706;2022-12-18T05:08:50;-5.20;99.90
24146;DHT22;12308;50.948;4.706;2022-12-18T05:11:16;-5.20;99.90
24146;DHT22;12308;50.948;4.706;2022-12-18T05:13:43;-5.10;99.90
24146;DHT22;12308;50.948;4.706;2022-12-18T05:16:09;-5.20;99.90
24146;DHT22;12308;50.948;4.706;2022-12-18T05:18:36;-5.30;99.90
24146;DHT22;12308;50.948;4.706;2022-12-18T05:21:01;-5.40;99.90
24146;DHT22;12308;50.948;4.706;2022-12-18T05:23:27;-5.60;99.90
24146;DHT22;12308;50.948;4.706;2022-12-18T05:25:54;-5.60;99.90
24146;DHT22;12308;50.948;4.706;2022-12-18T05:28:20;-5.60;99.90
24146;DHT22;12308;50.948;4.706;2022-12-18T05:30:54;-5.50;99.90
24146;DHT22;12308;50.948;4.706;2022-12-18T05:33:21;-5.50;99.90
24146;DHT22;12308;50.948;4.706;2022-12-18T05:35:51;-5.50;99.90
24146;DHT22;12308;50.948;4.706;2022-12-18T05:38:18;-5.70;99.90
24146;DHT22;12308;50.948;4.706;2022-12-18T05:40:43;-5.70;99.90
24146;DHT22;12308;50.948;4.706;2022-12-18T05:43:10;-5.60;99.90
24146;DHT22;12308;50.948;4.706;2022-12-18T05:45:39;-5.50;99.90
24146;DHT22;12308;50.948;4.706;2022-12-18T05:48:06;-5.60;99.90
24146;DHT22;12308;50.948;4.706;2022-12-18T05:50:36;-5.70;99.90
24146;DHT22;12308;50.948;4.706;2022-12-18T05:53:03;-5.70;99.90
24146;DHT22;12308;50.948;4.706;2022-12-18T05:55:29;-5.60;99.90
24146;DHT22;12308;50.948;4.706;2022-12-18T05:57:54;-5.60;99.90
24146;DHT22;12308;50.948;4.706;2022-12-18T06:00:20;-5.50;99.90
24146;DHT22;12308;50.948;4.706;2022-12-18T06:02:49;-5.30;99.90
24146;DHT22;12308;50.948;4.706;2022-12-18T06:05:14;-5.20;99.90
24146;DHT22;12308;50.948;4.706;2022-12-18T06:07:40;-5.30;99.90
24146;DHT22;12308;50.948;4.706;2022-12-18T06:10:06;-5.40;99.90
24146;DHT22;12308;50.948;4.706;2022-12-18T06:12:32;-5.40;99.90
24146;DHT22;12308;50.948;4.706;2022-12-18T06:14:59;-5.50;99.90
24146;DHT22;12308;50.948;4.706;2022-12-18T06:17:34;-5.50;99.90
24146;DHT22;12308;50.948;4.706;2022-12-18T06:20:00;-5.50;99.90
24146;DHT22;12308;50.948;4.706;2022-12-18T06:22:26;-5.50;99.90
24146;DHT22;12308;50.948;4.706;2022-12-18T06:24:52;-5.70;99.90
24146;DHT22;12308;50.948;4.706;2022-12-18T06:27:18;-5.60;99.90
24146;DHT22;12308;50.948;4.706;2022-12-18T06:29:44;-5.50;99.90
24146;DHT22;12308;50.948;4.706;2022-12-18T06:32:10;-5.60;99.90
24146;DHT22;12308;50.948;4.706;2022-12-18T06:34:37;-5.60;99.90
24146;DHT22;12308;50.948;4.706;2022-12-18T06:37:03;-5.60;99.90
24146;DHT22;12308;50.948;4.706;2022-12-18T06:39:29;-5.60;99.90
24146;DHT22;12308;50.948;4.706;2022-12-18T06:41:54;-5.40;99.90
24146;DHT22;12308;50.948;4.706;2022-12-18T06:44:20;-5.30;99.90
24146;DHT22;12308;50.948;4.706;2022-12-18T06:46:46;-5.30;99.90
24146;DHT22;12308;50.948;4.706;2022-12-18T06:49:11;-5.30;99.90
24146;DHT22;12308;50.948;4.706;2022-12-18T06:51:37;-5.30;99.90
24146;DHT22;12308;50.948;4.706;2022-12-18T06:54:03;-5.20;99.90
24146;DHT22;12308;50.948;4.706;2022-12-18T06:56:29;-5.20;99.90
24146;DHT22;12308;50.948;4.706;2022-12-18T06:58:55;-5.20;99.90
24146;DHT22;12308;50.948;4.706;2022-12-18T07:01:21;-5.10;99.90
24146;DHT22;12308;50.948;4.706;2022-12-18T07:03:52;-5.00;99.90
24146;DHT22;12308;50.948;4.706;2022-12-18T07:06:20;-4.80;99.90
24146;DHT22;12308;50.948;4.706;2022-12-18T07:08:46;-4.90;99.90
24146;DHT22;12308;50.948;4.706;2022-12-18T07:11:12;-4.90;99.90
24146;DHT22;12308;50.948;4.706;2022-12-18T07:13:38;-5.00;99.90
24146;DHT22;12308;50.948;4.706;2022-12-18T07:16:13;-5.00;99.90
24146;DHT22;12308;50.948;4.706;2022-12-18T07:18:38;-5.00;99.90
24146;DHT22;12308;50.948;4.706;2022-12-18T07:21:06;-5.00;99.90
24146;DHT22;12308;50.948;4.706;2022-12-18T07:23:33;-5.00;99.90
24146;DHT22;12308;50.948;4.706;2022-12-18T07:26:11;-5.00;99.90
24146;DHT22;12308;50.948;4.706;2022-12-18T07:28:38;-4.90;99.90
24146;DHT22;12308;50.948;4.706;2022-12-18T07:31:05;-4.90;99.90
24146;DHT22;12308;50.948;4.706;2022-12-18T07:33:32;-4.80;99.90
24146;DHT22;12308;50.948;4.706;2022-12-18T07:36:02;-4.80;99.90
24146;DHT22;12308;50.948;4.706;2022-12-18T07:38:29;-4.80;99.90
24146;DHT22;12308;50.948;4.706;2022-12-18T07:40:59;-4.70;99.90
24146;DHT22;12308;50.948;4.706;2022-12-18T07:43:25;-4.70;99.90
24146;DHT22;12308;50.948;4.706;2022-12-18T07:45:51;-4.60;99.90
24146;DHT22;12308;50.948;4.706;2022-12-18T07:48:17;-4.60;99.90
24146;DHT22;12308;50.948;4.706;2022-12-18T07:50:42;-4.60;99.90
24146;DHT22;12308;50.948;4.706;2022-12-18T07:53:08;-4.70;99.90
24146;DHT22;12308;50.948;4.706;2022-12-18T07:55:34;-4.70;99.90
24146;DHT22;12308;50.948;4.706;2022-12-18T07:58:03;-4.80;99.90
24146;DHT22;12308;50.948;4.706;2022-12-18T08:00:30;-4.70;99.90
24146;DHT22;12308;50.948;4.706;2022-12-18T08:02:56;-4.50;99.90
24146;DHT22;12308;50.948;4.706;2022-12-18T08:05:22;-4.40;99.90
24146;DHT22;12308;50.948;4.706;2022-12-18T08:07:47;-4.30;99.90
24146;DHT22;12308;50.948;4.706;2022-12-18T08:10:13;-4.30;99.90
24146;DHT22;12308;50.948;4.706;2022-12-18T08:12:39;-4.30;99.90
24146;DHT22;12308;50.948;4.706;2022-12-18T08:15:05;-4.40;99.90
24146;DHT22;12308;50.948;4.706;2022-12-18T08:17:31;-4.30;99.90
24146;DHT22;12308;50.948;4.706;2022-12-18T08:19:57;-4.20;99.90
24146;DHT22;12308;50.948;4.706;2022-12-18T08:22:22;-4.20;99.90
24146;DHT22;12308;50.948;4.706;2022-12-18T08:24:48;-4.00;99.90
24146;DHT22;12308;50.948;4.706;2022-12-18T08:27:14;-4.00;99.90
24146;DHT22;12308;50.948;4.706;2022-12-18T08:29:39;-3.90;99.90
24146;DHT22;12308;50.948;4.706;2022-12-18T08:32:05;-3.80;99.90
24146;DHT22;12308;50.948;4.706;2022-12-18T08:34:31;-3.70;99.90
24146;DHT22;12308;50.948;4.706;2022-12-18T08:36:56;-3.70;99.90
24146;DHT22;12308;50.948;4.706;2022-12-18T08:39:22;-3.60;99.90
24146;DHT22;12308;50.948;4.706;2022-12-18T08:41:47;-3.50;99.90
24146;DHT22;12308;50.948;4.706;2022-12-18T08:44:33;-3.30;99.90
24146;DHT22;12308;50.948;4.706;2022-12-18T08:47:05;-3.20;99.90
24146;DHT22;12308;50.948;4.706;2022-12-18T08:49:32;-3.10;99.90
24146;DHT22;12308;50.948;4.706;2022-12-18T08:51:58;-2.90;99.90
24146;DHT22;12308;50.948;4.706;2022-12-18T08:54:24;-2.90;99.90
24146;DHT22;12308;50.948;4.706;2022-12-18T08:56:50;-2.70;99.90
24146;DHT22;12308;50.948;4.706;2022-12-18T08:59:17;-2.80;99.90
24146;DHT22;12308;50.948;4.706;2022-12-18T09:01:43;-2.60;99.90
24146;DHT22;12308;50.948;4.706;2022-12-18T09:04:12;-2.50;99.90
24146;DHT22;12308;50.948;4.706;2022-12-18T09:06:39;-2.30;99.90
24146;DHT22;12308;50.948;4.706;2022-12-18T09:09:06;-2.20;99.90
24146;DHT22;12308;50.948;4.706;2022-12-18T09:11:33;-2.20;99.90
24146;DHT22;12308;50.948;4.706;2022-12-18T09:14:00;-2.10;99.90
24146;DHT22;12308;50.948;4.706;2022-12-18T09:16:27;-2.00;99.90
24146;DHT22;12308;50.948;4.706;2022-12-18T09:18:54;-2.10;99.90
24146;DHT22;12308;50.948;4.706;2022-12-18T09:21:26;-2.10;99.90
24146;DHT22;12308;50.948;4.706;2022-12-18T09:23:53;-2.10;99.90
24146;DHT22;12308;50.948;4.706;2022-12-18T09:26:23;-2.10;99.90
24146;DHT22;12308;50.948;4.706;2022-12-18T09:28:50;-2.00;99.90
24146;DHT22;12308;50.948;4.706;2022-12-18T09:31:18;-1.90;99.90
24146;DHT22;12308;50.948;4.706;2022-12-18T09:33:44;-1.90;99.90
24146;DHT22;12308;50.948;4.706;2022-12-18T09:36:13;-1.80;99.90
24146;DHT22;12308;50.948;4.706;2022-12-18T09:38:39;-1.60;99.90
24146;DHT22;12308;50.948;4.706;2022-12-18T09:46:40;-1.20;99.90
24146;DHT22;12308;50.948;4.706;2022-12-18T09:49:14;-1.20;99.90
24146;DHT22;12308;50.948;4.706;2022-12-18T09:51:47;-1.00;99.90
24146;DHT22;12308;50.948;4.706;2022-12-18T09:54:23;-0.70;99.90
24146;DHT22;12308;50.948;4.706;2022-12-18T09:56:50;-0.60;99.90
24146;DHT22;12308;50.948;4.706;2022-12-18T09:59:26;-0.40;99.90
24146;DHT22;12308;50.948;4.706;2022-12-18T10:01:55;-0.40;99.90
24146;DHT22;12308;50.948;4.706;2022-12-18T10:04:21;-0.40;99.90
24146;DHT22;12308;50.948;4.706;2022-12-18T10:07:03;-0.20;99.90
24146;DHT22;12308;50.948;4.706;2022-12-18T10:09:37;-0.10;99.90
24146;DHT22;12308;50.948;4.706;2022-12-18T10:12:09;-0.10;99.90
24146;DHT22;12308;50.948;4.706;2022-12-18T10:20:13;0.10;99.90
24146;DHT22;12308;50.948;4.706;2022-12-18T10:22:43;0.10;99.90
24146;DHT22;12308;50.948;4.706;2022-12-18T10:25:25;0.10;99.90
24146;DHT22;12308;50.948;4.706;2022-12-18T10:27:58;0.10;99.90
24146;DHT22;12308;50.948;4.706;2022-12-18T10:30:26;0.20;99.90
24146;DHT22;12308;50.948;4.706;2022-12-18T10:32:52;0.20;99.90
24146;DHT22;12308;50.948;4.706;2022-12-18T10:35:19;0.10;99.90
24146;DHT22;12308;50.948;4.706;2022-12-18T10:38:05;0.20;99.90
24146;DHT22;12308;50.948;4.706;2022-12-18T10:40:31;0.20;99.90
24146;DHT22;12308;50.948;4.706;2022-12-18T10:43:14;0.20;99.90
24146;DHT22;12308;50.948;4.706;2022-12-18T10:45:41;0.00;99.90
24146;DHT22;12308;50.948;4.706;2022-12-18T10:48:21;0.20;99.90
24146;DHT22;12308;50.948;4.706;2022-12-18T10:50:51;0.20;99.90
24146;DHT22;12308;50.948;4.706;2022-12-18T10:53:27;0.40;99.90
24146;DHT22;12308;50.948;4.706;2022-12-18T10:55:55;0.60;99.90
24146;DHT22;12308;50.948;4.706;2022-12-18T10:58:29;0.60;99.90
24146;DHT22;12308;50.948;4.706;2022-12-18T11:01:10;0.60;99.90
24146;DHT22;12308;50.948;4.706;2022-12-18T11:08:29;0.90;99.90
24146;DHT22;12308;50.948;4.706;2022-12-18T11:10:55;1.00;99.90
24146;DHT22;12308;50.948;4.706;2022-12-18T11:13:22;1.10;99.90
24146;DHT22;12308;50.948;4.706;2022-12-18T11:15:49;1.10;99.90
24146;DHT22;12308;50.948;4.706;2022-12-18T11:18:19;1.20;99.90
24146;DHT22;12308;50.948;4.706;2022-12-18T11:21:06;1.40;99.90
24146;DHT22;12308;50.948;4.706;2022-12-18T11:23:33;1.60;99.90
24146;DHT22;12308;50.948;4.706;2022-12-18T11:26:01;1.50;99.90
24146;DHT22;12308;50.948;4.706;2022-12-18T11:28:42;1.60;99.90
24146;DHT22;12308;50.948;4.706;2022-12-18T11:31:22;1.80;99.90
24146;DHT22;12308;50.948;4.706;2022-12-18T11:34:17;1.70;99.90
24146;DHT22;12308;50.948;4.706;2022-12-18T11:36:44;1.90;99.90
24146;DHT22;12308;50.948;4.706;2022-12-18T11:39:44;1.90;99.90
24146;DHT22;12308;50.948;4.706;2022-12-18T11:42:17;1.90;99.90
24146;DHT22;12308;50.948;4.706;2022-12-18T11:47:40;1.80;99.90
24146;DHT22;12308;50.948;4.706;2022-12-18T11:50:33;1.80;99.90
24146;DHT22;12308;50.948;4.706;2022-12-18T11:52:59;2.00;99.90
24146;DHT22;12308;50.948;4.706;2022-12-18T11:55:33;2.00;99.90
24146;DHT22;12308;50.948;4.706;2022-12-18T12:01:30;1.80;99.90
24146;DHT22;12308;50.948;4.706;2022-12-18T12:03:59;1.90;99.90
24146;DHT22;12308;50.948;4.706;2022-12-18T12:14:50;1.90;99.90
24146;DHT22;12308;50.948;4.706;2022-12-18T12:17:33;2.00;99.90
24146;DHT22;12308;50.948;4.706;2022-12-18T12:25:41;2.20;99.90
24146;DHT22;12308;50.948;4.706;2022-12-18T12:39:47;2.10;99.90
24146;DHT22;12308;50.948;4.706;2022-12-18T12:42:32;2.20;99.90
24146;DHT22;12308;50.948;4.706;2022-12-18T12:45:23;2.30;99.90
24146;DHT22;12308;50.948;4.706;2022-12-18T12:47:52;2.30;99.90
24146;DHT22;12308;50.948;4.706;2022-12-18T12:50:20;2.30;99.90
24146;DHT22;12308;50.948;4.706;2022-12-18T12:52:52;2.30;99.90
24146;DHT22;12308;50.948;4.706;2022-12-18T12:55:26;2.40;99.90
24146;DHT22;12308;50.948;4.706;2022-12-18T13:01:10;2.50;99.90
24146;DHT22;12308;50.948;4.706;2022-12-18T13:07:23;2.50;99.90
24146;DHT22;12308;50.948;4.706;2022-12-18T13:09:34;2.60;99.90
24146;DHT22;12308;50.948;4.706;2022-12-18T13:12:04;2.60;99.90
24146;DHT22;12308;50.948;4.706;2022-12-18T13:15:12;2.60;99.90
24146;DHT22;12308;50.948;4.706;2022-12-18T13:17:39;2.50;99.90
24146;DHT22;12308;50.948;4.706;2022-12-18T13:20:11;2.60;99.90
24146;DHT22;12308;50.948;4.706;2022-12-18T13:22:40;2.60;99.90
24146;DHT22;12308;50.948;4.706;2022-12-18T13:25:32;2.60;99.90
24146;DHT22;12308;50.948;4.706;2022-12-18T13:28:06;2.50;99.90
24146;DHT22;12308;50.948;4.706;2022-12-18T13:30:41;2.50;99.90
24146;DHT22;12308;50.948;4.706;2022-12-18T13:38:33;2.70;99.90
24146;DHT22;12308;50.948;4.706;2022-12-18T13:41:24;2.70;99.90
24146;DHT22;12308;50.948;4.706;2022-12-18T13:43:55;2.70;99.90
24146;DHT22;12308;50.948;4.706;2022-12-18T13:46:44;2.70;99.90
24146;DHT22;12308;50.948;4.706;2022-12-18T13:51:44;2.80;99.90
24146;DHT22;12308;50.948;4.706;2022-12-18T13:54:28;2.60;99.90
24146;DHT22;12308;50.948;4.706;2022-12-18T13:56:54;2.60;99.90
24146;DHT22;12308;50.948;4.706;2022-12-18T14:01:59;2.50;99.90
24146;DHT22;12308;50.948;4.706;2022-12-18T14:04:30;2.60;99.90
24146;DHT22;12308;50.948;4.706;2022-12-18T14:09:37;2.60;99.90
24146;DHT22;12308;50.948;4.706;2022-12-18T14:12:03;2.50;99.90
24146;DHT22;12308;50.948;4.706;2022-12-18T14:14:48;2.50;99.90
24146;DHT22;12308;50.948;4.706;2022-12-18T14:17:15;2.50;99.90
24146;DHT22;12308;50.948;4.706;2022-12-18T14:19:51;2.50;99.90
24146;DHT22;12308;50.948;4.706;2022-12-18T14:22:25;2.50;99.90
24146;DHT22;12308;50.948;4.706;2022-12-18T14:25:19;2.50;99.90
24146;DHT22;12308;50.948;4.706;2022-12-18T14:28:02;2.50;99.90
24146;DHT22;12308;50.948;4.706;2022-12-18T14:30:33;2.50;99.90
24146;DHT22;12308;50.948;4.706;2022-12-18T14:33:25;2.50;99.90
24146;DHT22;12308;50.948;4.706;2022-12-18T14:36:04;2.50;99.90
24146;DHT22;12308;50.948;4.706;2022-12-18T14:38:36;2.40;99.90
24146;DHT22;12308;50.948;4.706;2022-12-18T14:41:14;2.50;99.90
24146;DHT22;12308;50.948;4.706;2022-12-18T14:43:42;2.60;99.90
24146;DHT22;12308;50.948;4.706;2022-12-18T14:46:37;2.50;99.90
24146;DHT22;12308;50.948;4.706;2022-12-18T14:49:32;2.40;99.90
24146;DHT22;12308;50.948;4.706;2022-12-18T14:52:00;2.40;99.90
24146;DHT22;12308;50.948;4.706;2022-12-18T14:54:28;2.40;99.90
24146;DHT22;12308;50.948;4.706;2022-12-18T14:59:24;2.40;99.90
24146;DHT22;12308;50.948;4.706;2022-12-18T15:02:19;2.40;99.90
24146;DHT22;12308;50.948;4.706;2022-12-18T15:04:46;2.40;99.90
24146;DHT22;12308;50.948;4.706;2022-12-18T15:07:20;2.40;99.90
24146;DHT22;12308;50.948;4.706;2022-12-18T15:12:36;2.30;99.90
24146;DHT22;12308;50.948;4.706;2022-12-18T15:15:03;2.30;99.90
24146;DHT22;12308;50.948;4.706;2022-12-18T15:17:29;2.20;99.90
24146;DHT22;12308;50.948;4.706;2022-12-18T15:20:08;2.30;99.90
24146;DHT22;12308;50.948;4.706;2022-12-18T15:22:35;2.40;99.90
24146;DHT22;12308;50.948;4.706;2022-12-18T15:25:03;2.30;99.90
24146;DHT22;12308;50.948;4.706;2022-12-18T15:27:46;2.30;99.90
24146;DHT22;12308;50.948;4.706;2022-12-18T15:30:23;2.20;99.90
24146;DHT22;12308;50.948;4.706;2022-12-18T15:32:50;2.20;99.90
24146;DHT22;12308;50.948;4.706;2022-12-18T15:37:42;2.20;99.90
24146;DHT22;12308;50.948;4.706;2022-12-18T15:40:15;2.20;99.90
24146;DHT22;12308;50.948;4.706;2022-12-18T15:42:41;2.30;99.90
24146;DHT22;12308;50.948;4.706;2022-12-18T15:45:26;2.20;99.90
24146;DHT22;12308;50.948;4.706;2022-12-18T15:47:52;2.20;99.90
24146;DHT22;12308;50.948;4.706;2022-12-18T15:50:18;2.10;99.90
24146;DHT22;12308;50.948;4.706;2022-12-18T15:52:45;2.20;99.90
24146;DHT22;12308;50.948;4.706;2022-12-18T15:55:17;2.20;99.90
24146;DHT22;12308;50.948;4.706;2022-12-18T15:58:02;2.30;99.90
24146;DHT22;12308;50.948;4.706;2022-12-18T16:00:27;2.30;99.90
24146;DHT22;12308;50.948;4.706;2022-12-18T16:02:53;2.20;99.90
24146;DHT22;12308;50.948;4.706;2022-12-18T16:05:20;2.30;99.90
24146;DHT22;12308;50.948;4.706;2022-12-18T16:07:47;2.20;99.90
24146;DHT22;12308;50.948;4.706;2022-12-18T16:10:14;2.20;99.90
24146;DHT22;12308;50.948;4.706;2022-12-18T16:12:41;2.40;99.90
24146;DHT22;12308;50.948;4.706;2022-12-18T16:15:07;2.40;99.90
24146;DHT22;12308;50.948;4.706;2022-12-18T16:17:33;2.50;99.90
24146;DHT22;12308;50.948;4.706;2022-12-18T16:19:59;2.50;99.90
24146;DHT22;12308;50.948;4.706;2022-12-18T16:22:29;2.40;99.90
24146;DHT22;12308;50.948;4.706;2022-12-18T16:24:56;2.30;99.90
24146;DHT22;12308;50.948;4.706;2022-12-18T16:27:23;2.30;99.90
24146;DHT22;12308;50.948;4.706;2022-12-18T16:29:49;2.30;99.90
24146;DHT22;12308;50.948;4.706;2022-12-18T16:32:18;2.30;99.90
24146;DHT22;12308;50.948;4.706;2022-12-18T16:34:44;2.40;99.90
24146;DHT22;12308;50.948;4.706;2022-12-18T16:37:12;2.30;99.90
24146;DHT22;12308;50.948;4.706;2022-12-18T16:39:40;2.30;99.90
24146;DHT22;12308;50.948;4.706;2022-12-18T16:42:16;2.30;99.90
24146;DHT22;12308;50.948;4.706;2022-12-18T16:44:45;2.40;99.90
24146;DHT22;12308;50.948;4.706;2022-12-18T16:47:12;2.30;99.90
24146;DHT22;12308;50.948;4.706;2022-12-18T16:49:38;2.40;99.90
24146;DHT22;12308;50.948;4.706;2022-12-18T16:52:05;2.30;99.90
24146;DHT22;12308;50.948;4.706;2022-12-18T16:54:31;2.40;99.90
24146;DHT22;12308;50.948;4.706;2022-12-18T16:56:59;2.40;99.90
24146;DHT22;12308;50.948;4.706;2022-12-18T16:59:25;2.30;99.90
24146;DHT22;12308;50.948;4.706;2022-12-18T17:01:52;2.30;99.90
24146;DHT22;12308;50.948;4.706;2022-12-18T17:04:18;2.40;99.90
24146;DHT22;12308;50.948;4.706;2022-12-18T17:06:44;2.60;99.90
24146;DHT22;12308;50.948;4.706;2022-12-18T17:09:14;2.60;99.90
24146;DHT22;12308;50.948;4.706;2022-12-18T17:11:41;2.50;99.90
24146;DHT22;12308;50.948;4.706;2022-12-18T17:14:08;2.60;99.90
24146;DHT22;12308;50.948;4.706;2022-12-18T17:16:35;2.50;99.90
24146;DHT22;12308;50.948;4.706;2022-12-18T17:19:00;2.50;99.90
24146;DHT22;12308;50.948;4.706;2022-12-18T17:21:26;2.60;99.90
24146;DHT22;12308;50.948;4.706;2022-12-18T17:23:51;2.60;99.90
24146;DHT22;12308;50.948;4.706;2022-12-18T17:26:17;2.70;99.90
24146;DHT22;12308;50.948;4.706;2022-12-18T17:28:43;2.70;99.90
24146;DHT22;12308;50.948;4.706;2022-12-18T17:31:20;2.60;99.90
24146;DHT22;12308;50.948;4.706;2022-12-18T17:33:47;2.60;99.90